sensor_id;sensor_type;location;lat;lon;timestamp;P1;durP1;ratioP1;P2;durP2;ratioP2
65420;SDS011;52028;50.658;14.004;2022-12-13T00:00:42;14.52;;;5.63;;
65420;SDS011;52028;50.658;14.004;2022-12-13T00:03:07;8.90;;;3.17;;
65420;SDS011;52028;50.658;14.004;2022-12-13T00:05:33;11.00;;;5.22;;
65420;SDS011;52028;50.658;14.004;2022-12-13T00:07:59;11.63;;;5.07;;
65420;SDS011;52028;50.658;14.004;2022-12-13T00:10:25;13.63;;;4.63;;
65420;SDS011;52028;50.658;14.004;2022-12-13T00:12:51;11.27;;;4.07;;
65420;SDS011;52028;50.658;14.004;2022-12-13T00:15:17;10.40;;;4.88;;
65420;SDS011;52028;50.658;14.004;2022-12-13T00:17:43;7.22;;;4.00;;
65420;SDS011;52028;50.658;14.004;2022-12-13T00:20:09;14.80;;;4.50;;
65420;SDS011;52028;50.658;14.004;2022-12-13T00:22:35;11.35;;;4.07;;
65420;SDS011;52028;50.658;14.004;2022-12-13T00:25:00;9.75;;;4.90;;
65420;SDS011;52028;50.658;14.004;2022-12-13T00:27:25;10.00;;;4.20;;
65420;SDS011;52028;50.658;14.004;2022-12-13T00:29:51;8.43;;;3.70;;
65420;SDS011;52028;50.658;14.004;2022-12-13T00:32:16;6.90;;;3.85;;
65420;SDS011;52028;50.658;14.004;2022-12-13T00:34:42;12.40;;;5.25;;
65420;SDS011;52028;50.658;14.004;2022-12-13T00:37:07;8.98;;;3.95;;
65420;SDS011;52028;50.658;14.004;2022-12-13T00:39:32;13.30;;;4.85;;
65420;SDS011;52028;50.658;14.004;2022-12-13T00:41:58;13.13;;;4.40;;
65420;SDS011;52028;50.658;14.004;2022-12-13T00:44:23;15.70;;;4.35;;
65420;SDS011;52028;50.658;14.004;2022-12-13T00:46:48;6.28;;;2.30;;
65420;SDS011;52028;50.658;14.004;2022-12-13T00:49:15;12.25;;;4.15;;
65420;SDS011;52028;50.658;14.004;2022-12-13T00:51:41;12.35;;;4.10;;
65420;SDS011;52028;50.658;14.004;2022-12-13T00:54:06;12.60;;;5.05;;
65420;SDS011;52028;50.658;14.004;2022-12-13T00:56:32;10.60;;;4.45;;
65420;SDS011;52028;50.658;14.004;2022-12-13T00:58:58;10.43;;;4.72;;
65420;SDS011;52028;50.658;14.004;2022-12-13T01:01:28;8.80;;;4.22;;
65420;SDS011;52028;50.658;14.004;2022-12-13T01:03:56;11.73;;;5.07;;
65420;SDS011;52028;50.658;14.004;2022-12-13T01:09:00;12.57;;;5.20;;
65420;SDS011;52028;50.658;14.004;2022-12-13T01:11:26;9.35;;;4.05;;
65420;SDS011;52028;50.658;14.004;2022-12-13T01:13:51;12.32;;;5.70;;
65420;SDS011;52028;50.658;14.004;2022-12-13T01:16:17;10.80;;;5.10;;
65420;SDS011;52028;50.658;14.004;2022-12-13T01:18:42;13.45;;;5.35;;
65420;SDS011;52028;50.658;14.004;2022-12-13T01:21:12;13.50;;;5.53;;
65420;SDS011;52028;50.658;14.004;2022-12-13T01:23:39;11.50;;;5.13;;
65420;SDS011;52028;50.658;14.004;2022-12-13T01:26:07;13.52;;;6.07;;
65420;SDS011;52028;50.658;14.004;2022-12-13T01:28:33;15.30;;;6.10;;
65420;SDS011;52028;50.658;14.004;2022-12-13T01:31:00;13.60;;;6.25;;
65420;SDS011;52028;50.658;14.004;2022-12-13T01:33:30;15.00;;;5.35;;
65420;SDS011;52028;50.658;14.004;2022-12-13T01:35:59;12.73;;;6.22;;
65420;SDS011;52028;50.658;14.004;2022-12-13T01:38:25;11.57;;;4.82;;
65420;SDS011;52028;50.658;14.004;2022-12-13T01:40:51;12.27;;;5.78;;
65420;SDS011;52028;50.658;14.004;2022-12-13T01:46:00;13.23;;;6.75;;
65420;SDS011;52028;50.658;14.004;2022-12-13T01:48:27;14.55;;;6.22;;
65420;SDS011;52028;50.658;14.004;2022-12-13T01:50:56;19.95;;;6.80;;
65420;SDS011;52028;50.658;14.004;2022-12-13T01:53:26;16.40;;;6.07;;
65420;SDS011;52028;50.658;14.004;2022-12-13T01:55:56;17.58;;;7.13;;
65420;SDS011;52028;50.658;14.004;2022-12-13T01:58:26;15.98;;;6.72;;
65420;SDS011;52028;50.658;14.004;2022-12-13T02:00:52;20.15;;;7.70;;
65420;SDS011;52028;50.658;14.004;2022-12-13T02:03:17;18.58;;;6.90;;
65420;SDS011;52028;50.658;14.004;2022-12-13T02:05:51;17.75;;;8.40;;
65420;SDS011;52028;50.658;14.004;2022-12-13T02:08:23;17.80;;;7.35;;
65420;SDS011;52028;50.658;14.004;2022-12-13T02:10:49;17.02;;;7.20;;
65420;SDS011;52028;50.658;14.004;2022-12-13T02:13:15;16.38;;;7.78;;
65420;SDS011;52028;50.658;14.004;2022-12-13T02:18:48;20.40;;;7.35;;
65420;SDS011;52028;50.658;14.004;2022-12-13T02:21:32;23.70;;;8.95;;
65420;SDS011;52028;50.658;14.004;2022-12-13T02:32:21;21.15;;;8.65;;
65420;SDS011;52028;50.658;14.004;2022-12-13T02:40:31;19.08;;;8.82;;
65420;SDS011;52028;50.658;14.004;2022-12-13T02:43:18;40.85;;;13.20;;
65420;SDS011;52028;50.658;14.004;2022-12-13T02:45:48;37.17;;;13.20;;
65420;SDS011;52028;50.658;14.004;2022-12-13T02:48:17;41.63;;;12.60;;
65420;SDS011;52028;50.658;14.004;2022-12-13T02:50:47;46.47;;;13.40;;
65420;SDS011;52028;50.658;14.004;2022-12-13T02:53:15;67.30;;;19.63;;
65420;SDS011;52028;50.658;14.004;2022-12-13T02:55:41;66.90;;;18.75;;
65420;SDS011;52028;50.658;14.004;2022-12-13T02:58:10;80.45;;;22.75;;
65420;SDS011;52028;50.658;14.004;2022-12-13T03:11:20;41.92;;;13.68;;
65420;SDS011;52028;50.658;14.004;2022-12-13T03:13:58;33.42;;;11.25;;
65420;SDS011;52028;50.658;14.004;2022-12-13T03:16:37;31.30;;;11.43;;
65420;SDS011;52028;50.658;14.004;2022-12-13T03:19:06;41.20;;;13.68;;
65420;SDS011;52028;50.658;14.004;2022-12-13T03:21:37;40.88;;;13.50;;
65420;SDS011;52028;50.658;14.004;2022-12-13T03:26:29;44.85;;;12.68;;
65420;SDS011;52028;50.658;14.004;2022-12-13T03:28:54;39.35;;;12.68;;
65420;SDS011;52028;50.658;14.004;2022-12-13T03:31:20;31.52;;;10.70;;
65420;SDS011;52028;50.658;14.004;2022-12-13T03:33:45;32.20;;;11.48;;
65420;SDS011;52028;50.658;14.004;2022-12-13T03:36:11;24.67;;;9.88;;
65420;SDS011;52028;50.658;14.004;2022-12-13T03:38:37;31.48;;;11.07;;
65420;SDS011;52028;50.658;14.004;2022-12-13T03:41:08;36.58;;;11.63;;
65420;SDS011;52028;50.658;14.004;2022-12-13T03:43:36;21.65;;;8.30;;
65420;SDS011;52028;50.658;14.004;2022-12-13T03:46:02;14.45;;;6.80;;
65420;SDS011;52028;50.658;14.004;2022-12-13T03:48:28;22.75;;;8.95;;
65420;SDS011;52028;50.658;14.004;2022-12-13T03:50:53;34.83;;;10.77;;
65420;SDS011;52028;50.658;14.004;2022-12-13T03:53:21;27.15;;;9.60;;
65420;SDS011;52028;50.658;14.004;2022-12-13T03:55:47;49.28;;;15.95;;
65420;SDS011;52028;50.658;14.004;2022-12-13T03:58:12;44.15;;;13.00;;
65420;SDS011;52028;50.658;14.004;2022-12-13T04:00:38;49.95;;;15.88;;
65420;SDS011;52028;50.658;14.004;2022-12-13T04:03:03;44.63;;;14.25;;
65420;SDS011;52028;50.658;14.004;2022-12-13T04:05:29;41.88;;;13.30;;
65420;SDS011;52028;50.658;14.004;2022-12-13T04:07:54;24.45;;;9.75;;
65420;SDS011;52028;50.658;14.004;2022-12-13T04:10:20;26.27;;;11.63;;
65420;SDS011;52028;50.658;14.004;2022-12-13T04:12:45;23.20;;;9.60;;
65420;SDS011;52028;50.658;14.004;2022-12-13T04:15:29;26.33;;;10.05;;
65420;SDS011;52028;50.658;14.004;2022-12-13T04:17:54;24.75;;;10.30;;
65420;SDS011;52028;50.658;14.004;2022-12-13T04:20:20;29.92;;;11.32;;
65420;SDS011;52028;50.658;14.004;2022-12-13T04:22:45;27.50;;;10.13;;
65420;SDS011;52028;50.658;14.004;2022-12-13T04:25:10;25.02;;;10.32;;
65420;SDS011;52028;50.658;14.004;2022-12-13T04:27:36;28.15;;;11.18;;
65420;SDS011;52028;50.658;14.004;2022-12-13T04:30:02;20.70;;;8.60;;
65420;SDS011;52028;50.658;14.004;2022-12-13T04:32:29;22.17;;;9.60;;
65420;SDS011;52028;50.658;14.004;2022-12-13T04:34:54;25.98;;;9.18;;
65420;SDS011;52028;50.658;14.004;2022-12-13T04:37:19;22.45;;;8.80;;
65420;SDS011;52028;50.658;14.004;2022-12-13T04:39:45;24.20;;;9.65;;
65420;SDS011;52028;50.658;14.004;2022-12-13T04:42:14;22.00;;;9.13;;
65420;SDS011;52028;50.658;14.004;2022-12-13T04:44:39;27.58;;;9.55;;
65420;SDS011;52028;50.658;14.004;2022-12-13T04:47:05;31.35;;;9.68;;
65420;SDS011;52028;50.658;14.004;2022-12-13T04:49:30;28.00;;;10.75;;
65420;SDS011;52028;50.658;14.004;2022-12-13T04:51:56;37.25;;;12.38;;
65420;SDS011;52028;50.658;14.004;2022-12-13T04:54:21;34.58;;;10.77;;
65420;SDS011;52028;50.658;14.004;2022-12-13T04:56:47;26.92;;;10.20;;
65420;SDS011;52028;50.658;14.004;2022-12-13T04:59:13;25.52;;;10.05;;
65420;SDS011;52028;50.658;14.004;2022-12-13T05:01:38;26.88;;;10.05;;
65420;SDS011;52028;50.658;14.004;2022-12-13T05:04:03;25.30;;;8.98;;
65420;SDS011;52028;50.658;14.004;2022-12-13T05:06:29;21.48;;;9.10;;
65420;SDS011;52028;50.658;14.004;2022-12-13T05:08:54;22.15;;;8.05;;
65420;SDS011;52028;50.658;14.004;2022-12-13T05:11:20;16.83;;;7.80;;
65420;SDS011;52028;50.658;14.004;2022-12-13T05:13:45;21.90;;;8.88;;
65420;SDS011;52028;50.658;14.004;2022-12-13T05:16:10;30.17;;;9.75;;
65420;SDS011;52028;50.658;14.004;2022-12-13T05:18:36;32.65;;;10.63;;
65420;SDS011;52028;50.658;14.004;2022-12-13T05:21:07;29.38;;;9.68;;
65420;SDS011;52028;50.658;14.004;2022-12-13T05:23:33;27.90;;;10.02;;
65420;SDS011;52028;50.658;14.004;2022-12-13T05:25:59;31.95;;;11.95;;
65420;SDS011;52028;50.658;14.004;2022-12-13T05:28:25;27.33;;;11.45;;
65420;SDS011;52028;50.658;14.004;2022-12-13T05:30:52;37.38;;;16.20;;
65420;SDS011;52028;50.658;14.004;2022-12-13T05:33:18;47.45;;;21.13;;
65420;SDS011;52028;50.658;14.004;2022-12-13T05:35:43;44.13;;;19.55;;
65420;SDS011;52028;50.658;14.004;2022-12-13T05:38:09;35.90;;;16.40;;
65420;SDS011;52028;50.658;14.004;2022-12-13T05:40:35;39.97;;;14.57;;
65420;SDS011;52028;50.658;14.004;2022-12-13T05:43:00;28.52;;;10.63;;
65420;SDS011;52028;50.658;14.004;2022-12-13T05:45:25;94.18;;;35.55;;
65420;SDS011;52028;50.658;14.004;2022-12-13T05:47:51;81.55;;;30.00;;
65420;SDS011;52028;50.658;14.004;2022-12-13T05:50:16;90.07;;;34.88;;
65420;SDS011;52028;50.658;14.004;2022-12-13T05:52:42;84.78;;;29.08;;
65420;SDS011;52028;50.658;14.004;2022-12-13T05:55:08;57.70;;;20.73;;
65420;SDS011;52028;50.658;14.004;2022-12-13T05:57:34;52.05;;;18.05;;
65420;SDS011;52028;50.658;14.004;2022-12-13T05:59:59;50.47;;;18.98;;
65420;SDS011;52028;50.658;14.004;2022-12-13T06:02:25;54.05;;;18.58;;
65420;SDS011;52028;50.658;14.004;2022-12-13T06:04:50;41.00;;;15.80;;
65420;SDS011;52028;50.658;14.004;2022-12-13T06:07:25;50.83;;;21.77;;
65420;SDS011;52028;50.658;14.004;2022-12-13T06:09:51;52.58;;;23.98;;
65420;SDS011;52028;50.658;14.004;2022-12-13T06:12:16;42.25;;;17.50;;
65420;SDS011;52028;50.658;14.004;2022-12-13T06:14:41;53.05;;;19.02;;
65420;SDS011;52028;50.658;14.004;2022-12-13T06:17:07;61.20;;;20.17;;
65420;SDS011;52028;50.658;14.004;2022-12-13T06:19:32;70.00;;;25.02;;
65420;SDS011;52028;50.658;14.004;2022-12-13T06:21:58;85.07;;;26.17;;
65420;SDS011;52028;50.658;14.004;2022-12-13T06:24:23;101.38;;;31.45;;
65420;SDS011;52028;50.658;14.004;2022-12-13T06:26:49;88.07;;;24.67;;
65420;SDS011;52028;50.658;14.004;2022-12-13T06:29:15;75.55;;;24.27;;
65420;SDS011;52028;50.658;14.004;2022-12-13T06:31:42;83.10;;;27.67;;
65420;SDS011;52028;50.658;14.004;2022-12-13T06:34:08;46.63;;;17.90;;
65420;SDS011;52028;50.658;14.004;2022-12-13T06:36:34;51.38;;;18.20;;
65420;SDS011;52028;50.658;14.004;2022-12-13T06:39:09;64.30;;;19.52;;
65420;SDS011;52028;50.658;14.004;2022-12-13T06:41:39;53.83;;;17.00;;
65420;SDS011;52028;50.658;14.004;2022-12-13T06:44:05;51.30;;;18.15;;
65420;SDS011;52028;50.658;14.004;2022-12-13T06:46:30;40.22;;;15.27;;
65420;SDS011;52028;50.658;14.004;2022-12-13T06:48:56;38.00;;;14.88;;
65420;SDS011;52028;50.658;14.004;2022-12-13T06:51:23;34.42;;;14.52;;
65420;SDS011;52028;50.658;14.004;2022-12-13T06:53:48;30.25;;;13.45;;
65420;SDS011;52028;50.658;14.004;2022-12-13T06:56:17;35.47;;;14.68;;
65420;SDS011;52028;50.658;14.004;2022-12-13T06:58:47;39.67;;;15.65;;
65420;SDS011;52028;50.658;14.004;2022-12-13T07:01:13;43.70;;;17.35;;
65420;SDS011;52028;50.658;14.004;2022-12-13T07:03:40;43.75;;;18.23;;
65420;SDS011;52028;50.658;14.004;2022-12-13T07:06:07;50.75;;;19.35;;
65420;SDS011;52028;50.658;14.004;2022-12-13T07:08:38;42.35;;;17.90;;
65420;SDS011;52028;50.658;14.004;2022-12-13T07:11:04;41.63;;;16.02;;
65420;SDS011;52028;50.658;14.004;2022-12-13T07:13:29;49.63;;;17.92;;
65420;SDS011;52028;50.658;14.004;2022-12-13T07:15:55;46.10;;;17.98;;
65420;SDS011;52028;50.658;14.004;2022-12-13T07:18:20;41.00;;;15.82;;
65420;SDS011;52028;50.658;14.004;2022-12-13T07:20:46;52.00;;;18.95;;
65420;SDS011;52028;50.658;14.004;2022-12-13T07:23:11;52.95;;;18.77;;
65420;SDS011;52028;50.658;14.004;2022-12-13T07:25:37;58.33;;;21.02;;
65420;SDS011;52028;50.658;14.004;2022-12-13T07:28:04;53.35;;;21.80;;
65420;SDS011;52028;50.658;14.004;2022-12-13T07:30:37;58.10;;;22.88;;
65420;SDS011;52028;50.658;14.004;2022-12-13T07:33:04;54.00;;;22.92;;
65420;SDS011;52028;50.658;14.004;2022-12-13T07:35:30;72.15;;;32.78;;
65420;SDS011;52028;50.658;14.004;2022-12-13T07:37:56;55.70;;;21.00;;
65420;SDS011;52028;50.658;14.004;2022-12-13T07:40:22;49.20;;;18.98;;
65420;SDS011;52028;50.658;14.004;2022-12-13T07:42:51;47.47;;;19.45;;
65420;SDS011;52028;50.658;14.004;2022-12-13T07:45:17;48.85;;;19.95;;
65420;SDS011;52028;50.658;14.004;2022-12-13T07:47:43;45.92;;;17.70;;
65420;SDS011;52028;50.658;14.004;2022-12-13T07:50:08;51.45;;;18.92;;
65420;SDS011;52028;50.658;14.004;2022-12-13T07:52:34;52.25;;;20.55;;
65420;SDS011;52028;50.658;14.004;2022-12-13T07:55:00;55.65;;;21.25;;
65420;SDS011;52028;50.658;14.004;2022-12-13T07:57:26;61.40;;;22.80;;
65420;SDS011;52028;50.658;14.004;2022-12-13T07:59:51;50.03;;;21.38;;
65420;SDS011;52028;50.658;14.004;2022-12-13T08:02:17;48.22;;;20.38;;
65420;SDS011;52028;50.658;14.004;2022-12-13T08:04:42;56.40;;;20.48;;
65420;SDS011;52028;50.658;14.004;2022-12-13T08:07:08;60.83;;;21.55;;
65420;SDS011;52028;50.658;14.004;2022-12-13T08:09:33;52.30;;;20.90;;
65420;SDS011;52028;50.658;14.004;2022-12-13T08:11:59;76.95;;;27.10;;
65420;SDS011;52028;50.658;14.004;2022-12-13T08:14:25;82.30;;;25.90;;
65420;SDS011;52028;50.658;14.004;2022-12-13T08:16:50;75.07;;;28.00;;
65420;SDS011;52028;50.658;14.004;2022-12-13T08:19:16;58.88;;;24.55;;
65420;SDS011;52028;50.658;14.004;2022-12-13T08:21:41;43.80;;;19.58;;
65420;SDS011;52028;50.658;14.004;2022-12-13T08:24:06;51.65;;;19.65;;
65420;SDS011;52028;50.658;14.004;2022-12-13T08:26:32;55.20;;;20.60;;
65420;SDS011;52028;50.658;14.004;2022-12-13T08:28:57;51.97;;;19.42;;
65420;SDS011;52028;50.658;14.004;2022-12-13T08:31:24;42.05;;;18.85;;
65420;SDS011;52028;50.658;14.004;2022-12-13T08:33:49;46.55;;;17.58;;
65420;SDS011;52028;50.658;14.004;2022-12-13T08:36:15;47.08;;;18.85;;
65420;SDS011;52028;50.658;14.004;2022-12-13T08:38:42;51.83;;;18.35;;
65420;SDS011;52028;50.658;14.004;2022-12-13T08:41:08;48.72;;;18.65;;
65420;SDS011;52028;50.658;14.004;2022-12-13T08:43:33;48.92;;;18.98;;
65420;SDS011;52028;50.658;14.004;2022-12-13T08:45:59;45.33;;;17.13;;
65420;SDS011;52028;50.658;14.004;2022-12-13T08:48:25;46.30;;;18.90;;
65420;SDS011;52028;50.658;14.004;2022-12-13T08:50:51;36.20;;;15.07;;
65420;SDS011;52028;50.658;14.004;2022-12-13T08:53:16;41.42;;;16.05;;
65420;SDS011;52028;50.658;14.004;2022-12-13T08:55:41;37.67;;;15.25;;
65420;SDS011;52028;50.658;14.004;2022-12-13T08:58:07;35.00;;;15.55;;
65420;SDS011;52028;50.658;14.004;2022-12-13T09:00:33;36.35;;;15.65;;
65420;SDS011;52028;50.658;14.004;2022-12-13T09:02:59;40.03;;;16.10;;
65420;SDS011;52028;50.658;14.004;2022-12-13T09:05:25;37.30;;;16.20;;
65420;SDS011;52028;50.658;14.004;2022-12-13T09:07:54;34.47;;;14.55;;
65420;SDS011;52028;50.658;14.004;2022-12-13T09:10:20;39.20;;;16.42;;
65420;SDS011;52028;50.658;14.004;2022-12-13T09:12:46;39.63;;;16.17;;
65420;SDS011;52028;50.658;14.004;2022-12-13T09:15:11;48.05;;;18.15;;
65420;SDS011;52028;50.658;14.004;2022-12-13T09:17:37;45.58;;;18.02;;
65420;SDS011;52028;50.658;14.004;2022-12-13T09:20:03;36.55;;;16.75;;
65420;SDS011;52028;50.658;14.004;2022-12-13T09:22:30;39.83;;;17.67;;
65420;SDS011;52028;50.658;14.004;2022-12-13T09:24:56;40.60;;;18.40;;
65420;SDS011;52028;50.658;14.004;2022-12-13T09:27:21;44.30;;;16.65;;
65420;SDS011;52028;50.658;14.004;2022-12-13T09:29:46;39.55;;;15.43;;
65420;SDS011;52028;50.658;14.004;2022-12-13T09:32:12;38.42;;;15.63;;
65420;SDS011;52028;50.658;14.004;2022-12-13T09:34:37;30.42;;;14.27;;
65420;SDS011;52028;50.658;14.004;2022-12-13T09:37:02;29.15;;;14.27;;
65420;SDS011;52028;50.658;14.004;2022-12-13T09:39:28;38.10;;;14.52;;
65420;SDS011;52028;50.658;14.004;2022-12-13T09:41:55;32.35;;;14.10;;
65420;SDS011;52028;50.658;14.004;2022-12-13T09:44:35;34.80;;;14.70;;
65420;SDS011;52028;50.658;14.004;2022-12-13T09:47:08;36.47;;;15.05;;
65420;SDS011;52028;50.658;14.004;2022-12-13T09:49:39;32.83;;;14.48;;
65420;SDS011;52028;50.658;14.004;2022-12-13T09:52:10;26.87;;;11.97;;
65420;SDS011;52028;50.658;14.004;2022-12-13T09:54:39;21.92;;;8.90;;
65420;SDS011;52028;50.658;14.004;2022-12-13T09:57:08;21.65;;;10.38;;
65420;SDS011;52028;50.658;14.004;2022-12-13T09:59:40;24.65;;;10.63;;
65420;SDS011;52028;50.658;14.004;2022-12-13T10:04:53;28.45;;;11.60;;
65420;SDS011;52028;50.658;14.004;2022-12-13T10:07:21;24.63;;;10.05;;
65420;SDS011;52028;50.658;14.004;2022-12-13T10:09:48;25.05;;;11.38;;
65420;SDS011;52028;50.658;14.004;2022-12-13T10:12:22;28.65;;;12.18;;
65420;SDS011;52028;50.658;14.004;2022-12-13T10:14:53;22.00;;;10.02;;
65420;SDS011;52028;50.658;14.004;2022-12-13T10:17:22;20.70;;;9.35;;
65420;SDS011;52028;50.658;14.004;2022-12-13T10:19:51;26.58;;;10.30;;
65420;SDS011;52028;50.658;14.004;2022-12-13T10:22:18;24.27;;;8.77;;
65420;SDS011;52028;50.658;14.004;2022-12-13T10:27:17;19.52;;;9.40;;
65420;SDS011;52028;50.658;14.004;2022-12-13T10:37:58;31.05;;;10.00;;
65420;SDS011;52028;50.658;14.004;2022-12-13T10:40:32;25.05;;;9.38;;
65420;SDS011;52028;50.658;14.004;2022-12-13T10:43:31;17.80;;;7.70;;
65420;SDS011;52028;50.658;14.004;2022-12-13T10:46:00;26.25;;;9.13;;
65420;SDS011;52028;50.658;14.004;2022-12-13T10:48:59;21.02;;;8.30;;
65420;SDS011;52028;50.658;14.004;2022-12-13T10:51:18;21.50;;;9.30;;
65420;SDS011;52028;50.658;14.004;2022-12-13T10:53:47;28.20;;;9.65;;
65420;SDS011;52028;50.658;14.004;2022-12-13T10:58:42;14.38;;;6.82;;
65420;SDS011;52028;50.658;14.004;2022-12-13T11:01:22;16.27;;;7.85;;
65420;SDS011;52028;50.658;14.004;2022-12-13T11:06:24;14.55;;;7.35;;
65420;SDS011;52028;50.658;14.004;2022-12-13T11:08:51;19.67;;;8.10;;
65420;SDS011;52028;50.658;14.004;2022-12-13T11:11:17;19.75;;;7.60;;
65420;SDS011;52028;50.658;14.004;2022-12-13T11:13:51;13.85;;;6.97;;
65420;SDS011;52028;50.658;14.004;2022-12-13T11:16:31;15.77;;;6.90;;
65420;SDS011;52028;50.658;14.004;2022-12-13T11:19:00;19.63;;;8.90;;
65420;SDS011;52028;50.658;14.004;2022-12-13T11:21:30;21.60;;;8.23;;
65420;SDS011;52028;50.658;14.004;2022-12-13T11:23:58;18.77;;;7.85;;
65420;SDS011;52028;50.658;14.004;2022-12-13T11:26:26;34.85;;;12.98;;
65420;SDS011;52028;50.658;14.004;2022-12-13T11:39:30;18.55;;;8.93;;
65420;SDS011;52028;50.658;14.004;2022-12-13T11:42:00;21.27;;;9.57;;
65420;SDS011;52028;50.658;14.004;2022-12-13T11:47:33;22.15;;;8.98;;
65420;SDS011;52028;50.658;14.004;2022-12-13T11:50:05;28.30;;;9.93;;
65420;SDS011;52028;50.658;14.004;2022-12-13T11:52:39;20.45;;;9.18;;
65420;SDS011;52028;50.658;14.004;2022-12-13T12:02:58;25.90;;;9.30;;
65420;SDS011;52028;50.658;14.004;2022-12-13T12:05:53;29.55;;;10.10;;
65420;SDS011;52028;50.658;14.004;2022-12-13T12:08:34;24.15;;;9.77;;
65420;SDS011;52028;50.658;14.004;2022-12-13T12:14:19;27.02;;;9.98;;
65420;SDS011;52028;50.658;14.004;2022-12-13T12:16:50;24.13;;;10.52;;
65420;SDS011;52028;50.658;14.004;2022-12-13T12:19:18;28.95;;;10.55;;
65420;SDS011;52028;50.658;14.004;2022-12-13T12:24:24;26.33;;;10.75;;
65420;SDS011;52028;50.658;14.004;2022-12-13T12:30:04;22.60;;;10.05;;
65420;SDS011;52028;50.658;14.004;2022-12-13T12:35:33;24.13;;;11.03;;
65420;SDS011;52028;50.658;14.004;2022-12-13T12:47:15;23.55;;;10.15;;
65420;SDS011;52028;50.658;14.004;2022-12-13T12:52:50;22.88;;;10.13;;
65420;SDS011;52028;50.658;14.004;2022-12-13T13:03:42;27.25;;;9.63;;
65420;SDS011;52028;50.658;14.004;2022-12-13T13:06:15;22.27;;;10.02;;
65420;SDS011;52028;50.658;14.004;2022-12-13T13:11:30;20.60;;;10.35;;
65420;SDS011;52028;50.658;14.004;2022-12-13T13:16:54;22.58;;;9.90;;
65420;SDS011;52028;50.658;14.004;2022-12-13T13:21:51;20.70;;;10.15;;
65420;SDS011;52028;50.658;14.004;2022-12-13T13:26:46;36.97;;;11.93;;
65420;SDS011;52028;50.658;14.004;2022-12-13T13:34:22;25.47;;;11.43;;
65420;SDS011;52028;50.658;14.004;2022-12-13T13:36:49;28.55;;;12.45;;
65420;SDS011;52028;50.658;14.004;2022-12-13T13:39:17;36.78;;;13.30;;
65420;SDS011;52028;50.658;14.004;2022-12-13T13:47:10;28.83;;;12.05;;
65420;SDS011;52028;50.658;14.004;2022-12-13T13:49:56;28.00;;;11.68;;
65420;SDS011;52028;50.658;14.004;2022-12-13T13:52:36;24.05;;;10.48;;
65420;SDS011;52028;50.658;14.004;2022-12-13T14:04:08;28.87;;;12.13;;
65420;SDS011;52028;50.658;14.004;2022-12-13T14:06:54;22.77;;;11.02;;
65420;SDS011;52028;50.658;14.004;2022-12-13T14:21:28;33.40;;;12.13;;
65420;SDS011;52028;50.658;14.004;2022-12-13T14:26:50;37.28;;;14.10;;
65420;SDS011;52028;50.658;14.004;2022-12-13T14:29:23;35.55;;;15.35;;
65420;SDS011;52028;50.658;14.004;2022-12-13T14:32:17;29.48;;;13.60;;
65420;SDS011;52028;50.658;14.004;2022-12-13T14:34:55;35.35;;;15.25;;
65420;SDS011;52028;50.658;14.004;2022-12-13T14:37:26;32.47;;;15.93;;
65420;SDS011;52028;50.658;14.004;2022-12-13T14:39:57;36.63;;;17.08;;
65420;SDS011;52028;50.658;14.004;2022-12-13T14:42:27;37.65;;;17.40;;
65420;SDS011;52028;50.658;14.004;2022-12-13T14:44:55;37.75;;;16.45;;
65420;SDS011;52028;50.658;14.004;2022-12-13T14:47:38;36.75;;;17.23;;
65420;SDS011;52028;50.658;14.004;2022-12-13T14:50:05;34.20;;;15.25;;
65420;SDS011;52028;50.658;14.004;2022-12-13T14:52:32;39.83;;;16.85;;
65420;SDS011;52028;50.658;14.004;2022-12-13T14:55:02;30.08;;;14.70;;
65420;SDS011;52028;50.658;14.004;2022-12-13T14:57:29;39.60;;;15.27;;
65420;SDS011;52028;50.658;14.004;2022-12-13T14:59:57;38.38;;;16.38;;
65420;SDS011;52028;50.658;14.004;2022-12-13T15:02:25;35.53;;;15.82;;
65420;SDS011;52028;50.658;14.004;2022-12-13T15:04:55;35.80;;;15.93;;
65420;SDS011;52028;50.658;14.004;2022-12-13T15:07:35;35.15;;;16.30;;
65420;SDS011;52028;50.658;14.004;2022-12-13T15:10:23;39.90;;;16.38;;
65420;SDS011;52028;50.658;14.004;2022-12-13T15:12:58;53.97;;;22.75;;
65420;SDS011;52028;50.658;14.004;2022-12-13T15:15:36;37.65;;;17.52;;
65420;SDS011;52028;50.658;14.004;2022-12-13T15:18:19;37.35;;;16.65;;
65420;SDS011;52028;50.658;14.004;2022-12-13T15:20:46;41.95;;;16.65;;
65420;SDS011;52028;50.658;14.004;2022-12-13T15:23:22;38.80;;;16.85;;
65420;SDS011;52028;50.658;14.004;2022-12-13T15:25:55;43.65;;;18.40;;
65420;SDS011;52028;50.658;14.004;2022-12-13T15:28:36;41.90;;;18.42;;
65420;SDS011;52028;50.658;14.004;2022-12-13T15:31:05;42.80;;;18.20;;
65420;SDS011;52028;50.658;14.004;2022-12-13T15:33:31;45.08;;;17.77;;
65420;SDS011;52028;50.658;14.004;2022-12-13T15:38:28;42.65;;;18.35;;
65420;SDS011;52028;50.658;14.004;2022-12-13T15:40:54;36.83;;;16.90;;
65420;SDS011;52028;50.658;14.004;2022-12-13T15:43:20;35.70;;;15.38;;
65420;SDS011;52028;50.658;14.004;2022-12-13T15:45:50;42.95;;;18.75;;
65420;SDS011;52028;50.658;14.004;2022-12-13T15:48:27;39.33;;;17.58;;
65420;SDS011;52028;50.658;14.004;2022-12-13T15:53:59;41.97;;;17.35;;
65420;SDS011;52028;50.658;14.004;2022-12-13T15:56:27;44.13;;;18.30;;
65420;SDS011;52028;50.658;14.004;2022-12-13T15:58:55;46.80;;;18.03;;
65420;SDS011;52028;50.658;14.004;2022-12-13T16:01:26;41.38;;;18.15;;
65420;SDS011;52028;50.658;14.004;2022-12-13T16:03:52;42.92;;;18.30;;
65420;SDS011;52028;50.658;14.004;2022-12-13T16:06:18;47.40;;;18.48;;
65420;SDS011;52028;50.658;14.004;2022-12-13T16:08:50;39.03;;;16.42;;
65420;SDS011;52028;50.658;14.004;2022-12-13T16:11:38;47.20;;;18.80;;
65420;SDS011;52028;50.658;14.004;2022-12-13T16:19:54;38.35;;;17.80;;
65420;SDS011;52028;50.658;14.004;2022-12-13T16:22:22;42.53;;;17.65;;
65420;SDS011;52028;50.658;14.004;2022-12-13T16:24:48;45.42;;;19.00;;
65420;SDS011;52028;50.658;14.004;2022-12-13T16:27:14;38.15;;;17.30;;
65420;SDS011;52028;50.658;14.004;2022-12-13T16:29:39;43.72;;;18.25;;
65420;SDS011;52028;50.658;14.004;2022-12-13T16:32:04;46.70;;;19.52;;
65420;SDS011;52028;50.658;14.004;2022-12-13T16:34:30;48.03;;;19.92;;
65420;SDS011;52028;50.658;14.004;2022-12-13T16:36:55;49.97;;;19.85;;
65420;SDS011;52028;50.658;14.004;2022-12-13T16:39:23;53.78;;;23.95;;
65420;SDS011;52028;50.658;14.004;2022-12-13T16:41:49;54.00;;;21.58;;
65420;SDS011;52028;50.658;14.004;2022-12-13T16:44:19;52.55;;;22.42;;
65420;SDS011;52028;50.658;14.004;2022-12-13T16:46:49;60.00;;;25.65;;
65420;SDS011;52028;50.658;14.004;2022-12-13T16:49:23;53.67;;;24.63;;
65420;SDS011;52028;50.658;14.004;2022-12-13T16:51:50;50.53;;;22.77;;
65420;SDS011;52028;50.658;14.004;2022-12-13T16:54:17;62.63;;;28.88;;
65420;SDS011;52028;50.658;14.004;2022-12-13T16:56:43;58.45;;;24.92;;
65420;SDS011;52028;50.658;14.004;2022-12-13T16:59:13;51.55;;;23.92;;
65420;SDS011;52028;50.658;14.004;2022-12-13T17:01:40;43.45;;;18.73;;
65420;SDS011;52028;50.658;14.004;2022-12-13T17:04:08;46.65;;;19.65;;